Time;durP1;ratioP1;P1;durP2;ratioP2;P2;SDS_P1;SDS_P2;PMS_P1;PMS_P2;Temp;Humidity;BMP_temperature;BMP_pressure;BME280_temperature;BME280_humidity;BME280_pressure;Samples;Min_cycle;Max_cycle;Signal;HPM_P1;HPM_P2
2022/01/20 00:03:18;;;;;;;0.88;0.88;;;5.30;99.90;;;;;;4963909;28;20050;-76
2022/01/20 00:08:35;;;;;;;8.30;1.38;;;5.30;99.90;;;;;;4964616;28;20063;-77
2022/01/20 00:27:31;;;;;;;0.30;0.30;;;5.30;99.90;;;;;;4964003;28;20133;-77
2022/01/20 00:32:54;;;;;;;0.80;0.65;;;5.40;99.90;;;;;;4963051;28;20070;-76
2022/01/20 00:37:46;;;;;;;10.38;0.70;;;5.40;99.90;;;;;;4944042;28;20070;-76
2022/01/20 00:40:13;;;;;;;0.32;0.30;;;5.30;99.90;;;;;;4946512;28;20046;-76
2022/01/20 00:42:39;;;;;;;11.85;1.13;;;5.30;99.90;;;;;;4963808;28;20047;-77
2022/01/20 00:45:05;;;;;;;0.93;0.90;;;5.30;99.90;;;;;;4963633;28;20050;-77
2022/01/20 00:47:31;;;;;;;0.40;0.40;;;5.20;99.90;;;;;;4945138;28;20065;-77
2022/01/20 00:49:57;;;;;;;11.30;0.38;;;5.20;99.90;;;;;;4963829;28;20473;-76
2022/01/20 00:52:22;;;;;;;1.45;0.88;;;5.20;99.90;;;;;;4963981;28;20046;-76
2022/01/20 00:54:48;;;;;;;0.85;0.75;;;5.20;99.90;;;;;;4963761;28;20057;-77
2022/01/20 00:57:14;;;;;;;3.28;0.85;;;5.20;99.90;;;;;;4964007;28;20599;-76
2022/01/20 00:59:40;;;;;;;3.17;0.88;;;5.20;99.90;;;;;;4946130;28;20054;-76
2022/01/20 01:02:08;;;;;;;0.63;0.63;;;5.10;99.90;;;;;;4945588;28;20065;-76
2022/01/20 01:04:35;;;;;;;0.10;0.10;;;5.20;99.90;;;;;;4946222;28;20206;-76
2022/01/20 01:09:29;;;;;;;0.80;0.65;;;5.20;99.90;;;;;;4962831;28;20050;-76
2022/01/20 01:12:00;;;;;;;5.13;1.15;;;5.10;99.90;;;;;;4962020;28;20049;-76
2022/01/20 01:14:28;;;;;;;6.43;0.75;;;5.10;99.90;;;;;;4945490;28;20482;-77
2022/01/20 01:24:38;;;;;;;;;;;5.20;99.90;;;;;;4963593;28;20425;-76
2022/01/20 01:27:05;;;;;;;6.28;1.08;;;5.20;99.90;;;;;;4945479;28;19961;-77
2022/01/20 01:30:21;;;;;;;10.77;1.52;;;5.30;99.90;;;;;;4944789;28;20093;-76
2022/01/20 01:32:19;;;;;;;0.20;0.20;;;5.30;99.90;;;;;;4951509;28;20070;-77
2022/01/20 01:34:51;;;;;;;2.53;1.27;;;5.30;99.90;;;;;;4963427;28;20057;-76
2022/01/20 01:38:22;;;;;;;4.95;0.50;;;5.30;99.90;;;;;;4945861;28;20050;-76
2022/01/20 01:40:12;;;;;;;1.70;0.70;;;5.20;99.90;;;;;;4962144;28;20723;-76
2022/01/20 01:42:47;;;;;;;3.42;1.40;;;5.20;99.90;;;;;;4962914;28;20058;-76
2022/01/20 01:45:13;;;;;;;6.07;0.75;;;5.20;99.90;;;;;;4945878;28;20068;-76
2022/01/20 01:47:38;;;;;;;1.95;1.30;;;5.20;99.90;;;;;;4961947;28;20077;-76
2022/01/20 01:50:05;;;;;;;0.90;0.65;;;5.20;99.90;;;;;;4962325;28;20042;-76
2022/01/20 01:52:30;;;;;;;0.85;0.28;;;5.20;99.90;;;;;;4962174;28;20617;-76
2022/01/20 01:54:56;;;;;;;24.45;0.82;;;5.20;99.90;;;;;;4945607;28;20034;-76
2022/01/20 01:57:24;;;;;;;0.80;0.70;;;5.20;99.90;;;;;;4962491;28;20053;-76
2022/01/20 01:59:50;;;;;;;14.90;2.03;;;5.20;99.90;;;;;;4962635;28;20402;-76
2022/01/20 02:02:15;;;;;;;19.48;1.33;;;5.20;99.90;;;;;;4961687;28;20134;-76
2022/01/20 02:04:41;;;;;;;11.35;2.75;;;5.20;99.90;;;;;;4962356;28;20043;-76
2022/01/20 02:18:26;;;;;;;5.55;0.80;;;5.20;99.90;;;;;;4944962;28;20073;-76
2022/01/20 02:20:52;;;;;;;0.75;0.75;;;5.20;99.90;;;;;;4960732;28;20078;-76
2022/01/20 02:23:18;;;;;;;4.43;1.33;;;5.20;99.90;;;;;;4944427;28;20043;-76
2022/01/20 02:25:45;;;;;;;0.93;0.93;;;5.10;99.90;;;;;;4962772;28;20034;-76
2022/01/20 02:28:11;;;;;;;4.35;1.38;;;5.10;99.90;;;;;;4944806;28;20051;-76
2022/01/20 02:30:39;;;;;;;4.35;1.10;;;5.00;99.90;;;;;;4961147;28;20544;-77
2022/01/20 02:33:08;;;;;;;8.88;1.38;;;5.00;99.90;;;;;;4944608;28;20066;-76
2022/01/20 02:35:44;;;;;;;2.78;1.45;;;5.00;99.90;;;;;;4962096;28;20039;-77
2022/01/20 02:38:22;;;;;;;8.60;1.98;;;5.00;99.90;;;;;;4962383;28;20393;-77
2022/01/20 02:46:04;;;;;;;1.55;1.33;;;5.00;99.90;;;;;;4944318;28;20062;-76
2022/01/20 02:48:30;;;;;;;2.28;0.88;;;5.10;99.90;;;;;;4967835;28;20047;-76
2022/01/20 02:50:57;;;;;;;15.02;2.90;;;5.10;99.90;;;;;;4968463;28;20042;-76
2022/01/20 02:53:23;;;;;;;8.77;1.35;;;5.10;99.90;;;;;;4968097;28;20074;-76
2022/01/20 02:55:49;;;;;;;13.27;1.23;;;5.10;99.90;;;;;;4968539;28;20617;-77
2022/01/20 02:58:14;;;;;;;1.83;1.67;;;5.10;99.90;;;;;;4968869;28;20051;-76
2022/01/20 03:00:40;;;;;;;2.33;1.40;;;5.00;99.90;;;;;;4950299;28;20039;-77
2022/01/20 03:03:06;;;;;;;8.20;1.60;;;5.00;99.90;;;;;;4967801;28;20042;-77
2022/01/20 03:05:31;;;;;;;5.47;1.27;;;5.00;99.90;;;;;;4968191;28;20182;-76
2022/01/20 03:07:58;;;;;;;0.55;0.55;;;5.00;99.90;;;;;;4932043;29;20437;-76
2022/01/20 03:10:23;;;;;;;2.45;1.50;;;5.00;99.90;;;;;;4948651;29;20118;-76
2022/01/20 03:12:49;;;;;;;2.47;1.90;;;4.90;99.90;;;;;;4949066;29;20486;-76
2022/01/20 03:15:15;;;;;;;2.72;1.35;;;4.90;99.90;;;;;;4949240;28;20043;-76
2022/01/20 03:17:41;;;;;;;2.90;0.85;;;4.90;99.90;;;;;;4966164;28;20126;-77
2022/01/20 03:20:07;;;;;;;7.10;0.93;;;4.80;99.90;;;;;;4950825;28;20147;-76
2022/01/20 03:22:32;;;;;;;11.70;2.05;;;4.90;99.90;;;;;;4967748;28;20083;-76
2022/01/20 03:24:58;;;;;;;3.08;1.27;;;4.80;99.90;;;;;;4968486;28;20319;-76
2022/01/20 03:27:24;;;;;;;1.25;1.13;;;4.90;99.90;;;;;;4950495;28;20058;-76
2022/01/20 03:29:49;;;;;;;6.07;2.03;;;4.90;99.90;;;;;;4967386;28;20517;-76
2022/01/20 03:32:15;;;;;;;7.40;2.47;;;4.80;99.90;;;;;;4967655;28;20043;-76
2022/01/20 03:34:41;;;;;;;3.17;1.75;;;4.90;99.90;;;;;;4967915;28;20145;-76
2022/01/20 03:37:07;;;;;;;4.65;1.90;;;4.90;99.90;;;;;;4968081;28;20437;-76
2022/01/20 03:39:33;;;;;;;7.70;2.30;;;4.80;99.90;;;;;;4949831;28;20038;-76
2022/01/20 03:41:59;;;;;;;0.93;0.85;;;4.80;99.90;;;;;;4931184;29;20567;-76
2022/01/20 03:44:24;;;;;;;6.03;2.17;;;4.80;99.90;;;;;;4931542;28;20055;-76
2022/01/20 03:46:50;;;;;;;3.25;1.27;;;4.80;99.90;;;;;;4947262;29;20047;-76
2022/01/20 03:49:37;;;;;;;4.32;2.70;;;4.70;99.90;;;;;;4948271;29;20498;-76
2022/01/20 03:52:04;;;;;;;4.97;1.27;;;4.70;99.90;;;;;;4931366;29;20105;-76
2022/01/20 03:54:30;;;;;;;6.32;1.73;;;4.70;99.90;;;;;;4947912;29;20039;-76
2022/01/20 03:56:55;;;;;;;7.07;1.58;;;4.70;99.90;;;;;;4948540;29;20501;-76
2022/01/20 03:59:21;;;;;;;3.17;1.33;;;4.70;99.90;;;;;;4942663;28;20063;-76
2022/01/20 04:01:47;;;;;;;8.52;1.25;;;4.70;99.90;;;;;;4927965;29;20056;-76
2022/01/20 04:04:12;;;;;;;2.85;0.73;;;4.70;99.90;;;;;;4928500;29;20047;-76
2022/01/20 04:06:38;;;;;;;15.60;1.65;;;4.60;99.90;;;;;;4945159;29;20047;-76
2022/01/20 04:09:04;;;;;;;3.15;1.60;;;4.60;99.90;;;;;;4928393;29;20464;-76
2022/01/20 04:11:30;;;;;;;6.07;0.70;;;4.60;99.90;;;;;;4945515;29;20047;-76
2022/01/20 04:13:57;;;;;;;2.70;1.10;;;4.60;99.90;;;;;;4945217;29;20034;-76
2022/01/20 04:16:37;;;;;;;4.95;1.52;;;4.60;99.90;;;;;;4944348;29;20043;-76
2022/01/20 04:19:10;;;;;;;3.63;0.63;;;4.50;99.90;;;;;;4945154;29;20054;-76
2022/01/20 04:21:38;;;;;;;2.38;0.90;;;4.50;99.90;;;;;;4945026;29;20325;-76
2022/01/20 04:24:05;;;;;;;7.95;2.15;;;4.50;99.90;;;;;;4927619;29;20096;-76
2022/01/20 04:26:35;;;;;;;1.90;1.40;;;4.50;99.90;;;;;;4927999;29;20122;-76
2022/01/20 04:29:01;;;;;;;1.98;1.33;;;4.50;99.90;;;;;;4945554;29;20098;-76
2022/01/20 04:31:28;;;;;;;3.40;1.38;;;4.40;99.90;;;;;;4943818;29;20105;-76
2022/01/20 04:33:56;;;;;;;0.85;0.85;;;4.40;99.90;;;;;;4927695;29;20054;-76
2022/01/20 04:36:23;;;;;;;6.40;1.85;;;4.30;99.90;;;;;;4926882;29;20058;-76
2022/01/20 04:38:49;;;;;;;7.43;1.27;;;4.20;99.90;;;;;;4944976;29;20043;-76
2022/01/20 04:41:15;;;;;;;6.55;1.40;;;4.20;99.90;;;;;;4955736;28;20540;-76
2022/01/20 04:43:40;;;;;;;11.02;1.95;;;4.20;99.90;;;;;;4963381;28;20133;-76
2022/01/20 04:48:48;;;;;;;24.17;1.20;;;4.10;99.90;;;;;;4963867;28;20513;-76
2022/01/20 04:57:06;;;;;;;1.40;0.97;;;4.10;99.90;;;;;;4947491;28;20481;-76
2022/01/20 04:59:32;;;;;;;2.97;1.92;;;4.10;99.90;;;;;;4946219;28;20041;-76
2022/01/20 05:01:58;;;;;;;10.33;1.20;;;4.00;99.90;;;;;;4945874;28;20043;-76
2022/01/20 05:04:25;;;;;;;1.70;1.33;;;4.10;99.90;;;;;;4963108;28;20039;-76
2022/01/20 05:06:53;;;;;;;2.27;1.80;;;4.10;99.90;;;;;;4962404;28;20058;-76
2022/01/20 05:09:20;;;;;;;16.53;3.03;;;4.10;99.90;;;;;;4945380;28;20094;-76
2022/01/20 05:11:51;;;;;;;6.27;1.37;;;4.10;99.90;;;;;;4946734;28;20046;-76
2022/01/20 05:14:17;;;;;;;4.90;2.20;;;4.00;99.90;;;;;;4963362;28;20078;-76
2022/01/20 05:16:43;;;;;;;2.73;1.03;;;4.00;99.90;;;;;;4946083;28;20453;-76
2022/01/20 05:19:09;;;;;;;2.20;0.83;;;3.90;99.90;;;;;;4963044;28;20046;-76
2022/01/20 05:21:35;;;;;;;4.23;1.10;;;3.90;99.90;;;;;;4962894;28;20047;-76
2022/01/20 05:24:00;;;;;;;0.77;0.77;;;3.80;99.90;;;;;;4963477;28;20183;-76
2022/01/20 05:26:26;;;;;;;4.77;1.40;;;3.80;99.90;;;;;;4946240;28;20090;-76
2022/01/20 05:28:52;;;;;;;3.27;0.93;;;3.80;99.90;;;;;;4962630;28;20039;-76
2022/01/20 05:31:17;;;;;;;2.83;1.37;;;3.80;99.90;;;;;;4944538;28;20043;-76
2022/01/20 05:33:43;;;;;;;1.40;0.87;;;3.80;99.90;;;;;;4962453;28;20046;-76
2022/01/20 05:36:08;;;;;;;22.20;2.63;;;3.80;99.90;;;;;;4962833;28;20055;-76
2022/01/20 05:38:34;;;;;;;8.07;2.10;;;3.80;99.90;;;;;;4962694;28;20109;-76
2022/01/20 05:40:59;;;;;;;7.83;0.97;;;3.80;99.90;;;;;;4962643;28;20051;-76
2022/01/20 05:43:25;;;;;;;0.83;0.83;;;3.80;99.90;;;;;;4962512;28;20051;-76
2022/01/20 05:45:51;;;;;;;1.97;1.37;;;3.80;99.90;;;;;;4944397;28;20054;-77
2022/01/20 05:48:20;;;;;;;1.13;1.03;;;3.80;99.90;;;;;;4959922;28;20105;-78
2022/01/20 05:50:46;;;;;;;4.77;1.47;;;3.80;99.90;;;;;;4945337;28;20482;-76
2022/01/20 05:53:12;;;;;;;0.97;0.87;;;3.80;99.90;;;;;;4946316;28;20043;-76
2022/01/20 05:55:38;;;;;;;1.47;1.37;;;3.70;99.90;;;;;;4962417;28;20046;-76
2022/01/20 05:58:07;;;;;;;0.47;0.47;;;3.70;99.90;;;;;;4962281;28;20043;-76
2022/01/20 06:00:36;;;;;;;1.50;1.03;;;3.60;99.90;;;;;;4961619;28;20054;-76
2022/01/20 06:05:46;;;;;;;2.30;1.17;;;3.60;99.90;;;;;;4945332;28;20490;-76
2022/01/20 06:08:12;;;;;;;7.73;0.90;;;3.60;99.90;;;;;;4962526;28;20049;-76
2022/01/20 06:10:38;;;;;;;4.43;1.13;;;3.60;99.90;;;;;;4961785;28;20050;-76
2022/01/20 06:13:04;;;;;;;2.67;1.27;;;3.60;99.90;;;;;;4962222;28;20805;-76
2022/01/20 06:15:30;;;;;;;9.87;0.37;;;3.60;99.90;;;;;;4959798;28;20113;-76
2022/01/20 06:17:56;;;;;;;0.10;0.10;;;3.60;99.90;;;;;;4945374;28;20082;-76
2022/01/20 06:20:22;;;;;;;5.20;2.27;;;3.70;99.90;;;;;;4927283;28;20085;-77
2022/01/20 06:22:47;;;;;;;0.77;0.67;;;3.70;99.90;;;;;;4959686;28;20382;-77
2022/01/20 06:25:13;;;;;;;6.10;1.33;;;3.70;99.90;;;;;;4961676;28;20046;-77
2022/01/20 06:27:39;;;;;;;11.93;2.77;;;3.70;99.90;;;;;;4954484;28;20047;-77
2022/01/20 06:30:06;;;;;;;11.33;1.53;;;3.80;99.90;;;;;;4954219;28;20035;-77
2022/01/20 06:32:33;;;;;;;0.53;0.53;;;3.80;99.90;;;;;;4942712;29;20040;-77
2022/01/20 06:34:58;;;;;;;12.60;1.77;;;3.80;99.90;;;;;;4944627;28;20081;-77
2022/01/20 06:37:24;;;;;;;4.47;1.80;;;3.80;99.90;;;;;;4961770;28;20043;-77
2022/01/20 06:39:49;;;;;;;12.13;1.30;;;3.80;99.90;;;;;;4961728;28;20035;-78
2022/01/20 06:42:15;;;;;;;4.07;1.87;;;3.80;99.90;;;;;;4956671;28;20191;-76
2022/01/20 06:44:42;;;;;;;6.27;1.53;;;3.90;99.90;;;;;;4943092;28;20043;-76
2022/01/20 06:47:08;;;;;;;14.67;2.23;;;3.80;99.90;;;;;;4961248;28;20287;-76
2022/01/20 06:49:34;;;;;;;11.30;1.30;;;3.80;99.90;;;;;;4961685;28;20042;-76
2022/01/20 06:51:59;;;;;;;9.33;2.23;;;3.80;99.90;;;;;;4960965;28;20510;-76
2022/01/20 06:54:25;;;;;;;9.83;2.13;;;3.70;99.90;;;;;;4944452;28;20525;-76
2022/01/20 06:56:51;;;;;;;1.27;1.17;;;3.60;99.90;;;;;;4961306;28;20042;-76
2022/01/20 06:59:17;;;;;;;5.30;0.93;;;3.60;99.90;;;;;;4944680;28;20053;-76
2022/01/20 07:01:44;;;;;;;9.43;2.17;;;3.60;99.90;;;;;;4943615;28;20750;-76
2022/01/20 07:04:13;;;;;;;10.73;1.53;;;3.60;99.90;;;;;;4961302;28;20461;-76
2022/01/20 07:06:42;;;;;;;5.93;2.27;;;3.50;99.90;;;;;;4961000;28;20690;-76
2022/01/20 07:09:09;;;;;;;0.97;0.97;;;3.50;99.90;;;;;;4960050;28;20035;-84
2022/01/20 07:11:35;;;;;;;2.77;1.40;;;3.50;99.90;;;;;;4940163;28;20059;-86
2022/01/20 07:14:01;;;;;;;3.13;1.23;;;3.50;99.90;;;;;;4934724;28;20058;-85
2022/01/20 07:16:28;;;;;;;8.03;2.13;;;3.50;99.90;;;;;;4951727;28;20113;-86
2022/01/20 07:18:54;;;;;;;4.13;0.80;;;3.50;99.90;;;;;;4929384;28;20054;-78
2022/01/20 07:21:20;;;;;;;3.40;1.27;;;3.50;99.90;;;;;;4959965;28;20513;-78
2022/01/20 07:23:46;;;;;;;11.73;1.13;;;3.60;99.90;;;;;;4960526;28;20047;-78
2022/01/20 07:26:11;;;;;;;3.33;1.77;;;3.60;99.90;;;;;;4943733;28;20041;-78
2022/01/20 07:28:37;;;;;;;10.10;1.40;;;3.70;99.90;;;;;;4961080;28;20061;-78
2022/01/20 07:31:03;;;;;;;0.83;0.83;;;3.70;99.90;;;;;;4954918;28;20031;-82
2022/01/20 07:33:28;;;;;;;3.93;1.43;;;3.80;99.90;;;;;;4961329;28;20713;-79
2022/01/20 07:35:54;;;;;;;3.73;2.20;;;3.80;99.90;;;;;;4962972;28;20101;-81
2022/01/20 07:38:19;;;;;;;4.57;1.43;;;3.80;99.90;;;;;;4963320;28;20046;-80
2022/01/20 07:40:45;;;;;;;3.63;1.87;;;3.90;99.90;;;;;;4962377;28;20533;-86
2022/01/20 07:43:11;;;;;;;6.60;2.20;;;3.90;99.90;;;;;;4963430;28;20038;-86
2022/01/20 07:45:37;;;;;;;1.97;1.00;;;3.90;99.90;;;;;;4944296;28;20038;-84
2022/01/20 07:48:03;;;;;;;7.60;1.67;;;3.90;99.90;;;;;;4962705;28;20517;-85
2022/01/20 07:50:28;;;;;;;1.73;0.57;;;3.90;99.90;;;;;;4943003;28;20069;-82
2022/01/20 07:52:54;;;;;;;3.90;1.37;;;3.90;99.90;;;;;;4951485;28;20437;-82
2022/01/20 07:55:20;;;;;;;1.17;1.13;;;3.90;99.90;;;;;;4963260;28;20038;-78
2022/01/20 07:57:45;;;;;;;3.10;0.70;;;3.90;99.90;;;;;;4964174;28;20040;-78
2022/01/20 08:00:12;;;;;;;3.23;1.83;;;3.90;99.90;;;;;;4931789;28;20051;-77
2022/01/20 08:02:37;;;;;;;8.00;2.03;;;3.90;99.90;;;;;;4949653;28;20054;-84
2022/01/20 08:05:04;;;;;;;6.60;1.67;;;3.90;99.90;;;;;;4963697;28;20035;-82
2022/01/20 08:07:29;;;;;;;7.77;2.03;;;3.90;99.90;;;;;;4963840;28;20047;-81
2022/01/20 08:09:58;;;;;;;11.13;2.93;;;3.90;99.90;;;;;;4961740;28;20611;-83
2022/01/20 08:12:37;;;;;;;2.60;1.30;;;3.90;99.90;;;;;;4961165;28;20047;-87
2022/01/20 08:15:03;;;;;;;4.70;1.50;;;3.80;99.90;;;;;;4962304;28;20418;-81
2022/01/20 08:17:28;;;;;;;7.97;0.83;;;3.90;99.90;;;;;;4962064;28;20034;-83
2022/01/20 08:19:54;;;;;;;4.03;1.33;;;3.80;99.90;;;;;;4947064;28;20051;-83
2022/01/20 08:22:19;;;;;;;6.50;1.90;;;3.80;99.90;;;;;;4959529;28;20043;-82
2022/01/20 08:24:51;;;;;;;0.90;0.70;;;3.80;99.90;;;;;;4959224;28;20049;-83
2022/01/20 08:27:26;;;;;;;3.50;1.17;;;3.90;99.90;;;;;;4944106;28;20122;-86
2022/01/20 08:29:52;;;;;;;4.43;2.03;;;3.80;99.90;;;;;;4953559;28;20051;-86
2022/01/20 08:32:18;;;;;;;0.87;0.87;;;3.80;99.90;;;;;;4925562;29;20125;-82
2022/01/20 08:34:43;;;;;;;7.00;1.10;;;3.80;99.90;;;;;;4943534;29;20462;-84
2022/01/20 08:37:09;;;;;;;3.37;1.50;;;3.90;99.90;;;;;;4924849;29;20098;-82
2022/01/20 08:39:41;;;;;;;1.87;1.70;;;4.00;99.90;;;;;;4925084;29;20105;-79
2022/01/20 08:42:07;;;;;;;;;;;4.00;99.90;;;;;;4942854;29;20145;-81
2022/01/20 08:44:33;;;;;;;6.60;2.10;;;4.00;99.90;;;;;;4940680;28;20009;-84
2022/01/20 08:47:02;;;;;;;10.83;2.40;;;4.00;99.90;;;;;;4925226;29;20043;-86
2022/01/20 08:49:28;;;;;;;5.03;1.53;;;3.90;99.90;;;;;;4925019;29;20506;-78
2022/01/20 08:51:54;;;;;;;1.17;1.07;;;3.80;99.90;;;;;;4942784;29;20043;-78
2022/01/20 08:54:20;;;;;;;10.70;1.53;;;3.80;99.90;;;;;;4943315;29;20050;-79
2022/01/20 08:56:47;;;;;;;17.17;0.97;;;3.70;99.90;;;;;;4944070;29;20043;-79
2022/01/20 08:59:13;;;;;;;18.03;1.27;;;3.70;99.90;;;;;;4926849;29;20062;-79
2022/01/20 09:01:41;;;;;;;4.13;1.23;;;3.60;99.90;;;;;;4939611;28;20406;-79
2022/01/20 09:04:08;;;;;;;2.30;1.10;;;3.60;99.90;;;;;;4941064;28;20180;-79
2022/01/20 09:06:34;;;;;;;0.83;0.83;;;3.60;99.90;;;;;;4920346;29;20142;-79
2022/01/20 09:09:00;;;;;;;3.40;1.77;;;3.70;99.90;;;;;;4925246;29;20043;-78
2022/01/20 09:11:35;;;;;;;4.63;1.30;;;3.70;99.90;;;;;;4924274;29;20043;-77
2022/01/20 09:16:45;;;;;;;12.97;1.13;;;3.70;99.90;;;;;;4924406;28;20065;-79
2022/01/20 09:19:10;;;;;;;2.73;1.53;;;3.70;99.90;;;;;;4926240;29;20043;-80
2022/01/20 09:21:38;;;;;;;18.50;1.83;;;3.80;99.90;;;;;;4924527;29;20246;-79
2022/01/20 09:24:05;;;;;;;1.47;1.10;;;3.80;99.90;;;;;;4942982;29;20075;-79
2022/01/20 09:26:31;;;;;;;6.90;1.57;;;3.80;99.90;;;;;;4944961;28;20062;-79
2022/01/20 09:28:57;;;;;;;6.80;2.03;;;3.80;99.90;;;;;;4944639;28;20404;-79
2022/01/20 09:31:24;;;;;;;2.30;2.10;;;3.80;99.90;;;;;;4943805;28;20487;-79
2022/01/20 09:33:50;;;;;;;0.70;0.70;;;3.90;99.90;;;;;;4925610;28;20089;-79
2022/01/20 09:36:15;;;;;;;5.20;1.00;;;3.90;99.90;;;;;;4942723;28;20047;-81
2022/01/20 09:38:41;;;;;;;7.40;0.87;;;4.00;99.90;;;;;;4942211;28;20043;-79
2022/01/20 09:41:08;;;;;;;12.43;1.93;;;4.00;99.90;;;;;;4942579;28;20482;-80
2022/01/20 09:43:34;;;;;;;13.90;0.93;;;4.10;99.90;;;;;;4942719;28;20117;-78
2022/01/20 09:46:00;;;;;;;1.60;0.40;;;4.00;99.90;;;;;;4941272;28;20506;-80
2022/01/20 09:48:28;;;;;;;5.00;1.53;;;4.10;99.90;;;;;;4937920;28;20145;-79
2022/01/20 09:50:54;;;;;;;3.03;1.27;;;4.20;99.90;;;;;;4943627;28;20059;-78
2022/01/20 09:53:20;;;;;;;1.20;1.13;;;4.20;99.90;;;;;;4959183;28;20092;-79
2022/01/20 09:55:46;;;;;;;3.60;1.47;;;4.20;99.90;;;;;;4960255;28;20043;-80
2022/01/20 09:58:13;;;;;;;4.53;1.93;;;4.20;99.90;;;;;;4959978;28;20500;-79
2022/01/20 10:00:41;;;;;;;11.53;2.23;;;4.20;99.90;;;;;;4920155;28;20043;-81
2022/01/20 10:03:13;;;;;;;16.30;1.53;;;4.30;99.90;;;;;;4942387;28;20369;-79
2022/01/20 10:05:48;;;;;;;2.88;2.47;;;4.30;99.90;;;;;;4940262;28;21114;-77
2022/01/20 10:08:23;;;;;;;2.85;2.60;;;4.30;99.90;;;;;;4961512;28;20051;-78
2022/01/20 10:11:09;;;;;;;10.80;1.43;;;4.20;99.90;;;;;;4927825;28;20449;-78
2022/01/20 10:13:38;;;;;;;2.10;1.97;;;4.20;99.90;;;;;;4960592;28;20579;-78
2022/01/20 10:16:16;;;;;;;9.80;2.67;;;4.30;99.90;;;;;;4961065;28;20030;-79
2022/01/20 10:18:51;;;;;;;3.50;2.30;;;4.30;99.90;;;;;;4944161;28;20049;-78
2022/01/20 10:21:18;;;;;;;3.97;1.40;;;4.30;99.90;;;;;;4944548;28;20055;-77
2022/01/20 10:23:47;;;;;;;2.40;1.80;;;4.30;99.90;;;;;;4944092;28;20081;-78
2022/01/20 10:26:14;;;;;;;2.67;1.77;;;4.40;99.90;;;;;;4961366;28;20347;-78
2022/01/20 10:29:01;;;;;;;3.57;1.57;;;4.40;99.90;;;;;;4927924;28;20055;-78
2022/01/20 10:31:34;;;;;;;1.20;1.10;;;4.50;99.90;;;;;;4942423;28;20080;-79
2022/01/20 10:34:00;;;;;;;9.10;3.20;;;4.50;99.90;;;;;;4923771;29;20474;-80
2022/01/20 10:36:26;;;;;;;5.93;2.83;;;4.50;99.90;;;;;;4924231;29;20516;-83
2022/01/20 10:38:54;;;;;;;3.27;1.93;;;4.50;99.90;;;;;;4941126;29;20126;-81
2022/01/20 10:41:27;;;;;;;6.60;3.13;;;4.60;99.90;;;;;;4922459;29;20055;-84
2022/01/20 10:44:01;;;;;;;19.45;1.02;;;4.60;99.90;;;;;;4924068;29;20039;-80
2022/01/20 10:46:27;;;;;;;2.20;2.00;;;4.60;99.90;;;;;;4924116;29;20541;-80
2022/01/20 10:49:00;;;;;;;1.80;1.23;;;4.60;99.90;;;;;;4924279;29;20285;-78
2022/01/20 10:51:27;;;;;;;1.80;1.70;;;4.60;99.90;;;;;;4941913;29;20043;-78
2022/01/20 10:54:00;;;;;;;6.53;1.23;;;4.50;99.90;;;;;;4941907;29;20052;-78
2022/01/20 10:56:26;;;;;;;13.38;1.85;;;4.50;99.90;;;;;;4941395;29;20132;-78
2022/01/20 10:58:52;;;;;;;17.07;2.53;;;4.50;99.90;;;;;;4947213;28;20136;-78
2022/01/20 11:01:18;;;;;;;15.50;1.10;;;4.50;99.90;;;;;;4955390;28;20121;-80
2022/01/20 11:03:44;;;;;;;4.83;1.37;;;4.50;99.90;;;;;;4943059;28;20146;-80
2022/01/20 11:06:10;;;;;;;2.13;1.07;;;4.50;99.90;;;;;;4959334;28;20035;-79
2022/01/20 11:08:41;;;;;;;22.30;1.87;;;4.50;99.90;;;;;;4942930;28;20043;-78
2022/01/20 11:11:06;;;;;;;1.27;1.17;;;4.50;99.90;;;;;;4965021;28;20260;-78
2022/01/20 11:13:32;;;;;;;5.63;1.80;;;4.60;99.90;;;;;;4964991;28;20379;-78
2022/01/20 11:15:57;;;;;;;12.93;2.30;;;4.60;99.90;;;;;;4947260;28;20464;-79
2022/01/20 11:18:30;;;;;;;1.30;1.03;;;4.70;99.90;;;;;;4946892;28;20458;-79
2022/01/20 11:20:56;;;;;;;1.90;1.45;;;4.60;99.90;;;;;;4947763;28;20054;-78
2022/01/20 11:23:22;;;;;;;14.13;1.17;;;4.50;99.90;;;;;;4947174;28;20074;-78
2022/01/20 11:25:48;;;;;;;3.50;1.53;;;4.40;99.90;;;;;;4965354;28;20612;-78
2022/01/20 11:28:24;;;;;;;10.67;1.87;;;4.30;99.90;;;;;;4948612;28;20468;-78
2022/01/20 11:30:56;;;;;;;4.20;1.03;;;4.30;99.90;;;;;;4955686;28;20039;-78
2022/01/20 11:33:38;;;;;;;8.33;0.93;;;4.30;99.90;;;;;;4963777;28;20047;-78
2022/01/20 11:36:06;;;;;;;2.78;1.35;;;4.30;99.90;;;;;;4947126;28;20055;-78
2022/01/20 11:38:43;;;;;;;1.27;1.07;;;4.30;99.90;;;;;;4963733;28;20114;-78
2022/01/20 11:41:13;;;;;;;5.17;1.23;;;4.30;99.90;;;;;;4963228;28;20063;-78
2022/01/20 11:43:46;;;;;;;0.53;0.53;;;4.30;99.90;;;;;;4961592;28;20137;-79
2022/01/20 11:46:18;;;;;;;6.30;2.10;;;4.40;99.90;;;;;;4945250;28;20074;-78
2022/01/20 11:49:03;;;;;;;1.85;1.63;;;4.50;99.90;;;;;;4946910;28;20117;-78
2022/01/20 11:51:59;;;;;;;14.80;2.17;;;4.50;99.90;;;;;;4946699;28;20410;-78
2022/01/20 11:54:39;;;;;;;21.30;3.17;;;4.60;99.90;;;;;;4946850;28;20057;-78
2022/01/20 11:57:12;;;;;;;0.77;0.53;;;4.70;99.90;;;;;;4963097;28;20047;-79
2022/01/20 11:59:44;;;;;;;3.30;1.33;;;4.60;99.90;;;;;;4944665;28;20081;-79
2022/01/20 12:02:22;;;;;;;16.30;1.73;;;4.60;99.90;;;;;;4963907;28;20441;-78
2022/01/20 12:04:49;;;;;;;3.38;1.33;;;4.50;99.90;;;;;;4946105;28;20141;-78
2022/01/20 12:07:26;;;;;;;4.88;1.77;;;4.40;99.90;;;;;;4963821;28;20057;-78
2022/01/20 12:10:02;;;;;;;6.47;0.70;;;4.40;99.90;;;;;;4946079;28;20061;-78
2022/01/20 12:12:28;;;;;;;1.43;0.80;;;4.40;99.90;;;;;;4963609;28;20047;-78
2022/01/20 12:14:54;;;;;;;0.68;0.68;;;4.40;99.90;;;;;;4961627;28;20039;-78
2022/01/20 12:17:20;;;;;;;1.27;1.17;;;4.40;99.90;;;;;;4945214;28;20046;-78
2022/01/20 12:19:53;;;;;;;1.60;1.42;;;4.40;99.90;;;;;;4962000;28;20524;-78
2022/01/20 12:22:19;;;;;;;2.43;1.40;;;4.40;99.90;;;;;;4946543;28;20117;-78
2022/01/20 12:24:52;;;;;;;0.77;0.77;;;4.40;99.90;;;;;;4964520;28;20502;-77
2022/01/20 12:27:23;;;;;;;4.23;1.20;;;4.40;99.90;;;;;;4963975;28;20047;-78
2022/01/20 12:29:49;;;;;;;9.60;1.97;;;4.30;99.90;;;;;;4941940;29;20102;-77
2022/01/20 12:32:17;;;;;;;8.43;2.77;;;4.20;99.90;;;;;;4943962;29;20056;-77
2022/01/20 12:34:43;;;;;;;2.72;1.90;;;4.20;99.90;;;;;;4925787;29;20043;-78
2022/01/20 12:37:10;;;;;;;8.87;1.80;;;4.20;99.90;;;;;;4943274;29;20094;-77
2022/01/20 12:39:37;;;;;;;8.38;1.13;;;4.20;99.90;;;;;;4943214;29;20062;-77
2022/01/20 12:42:09;;;;;;;0.50;0.50;;;4.10;99.90;;;;;;4943031;29;20402;-78
2022/01/20 12:44:48;;;;;;;0.50;0.50;;;4.10;99.90;;;;;;4942171;29;20307;-77
2022/01/20 12:47:16;;;;;;;0.60;0.53;;;4.10;99.90;;;;;;4925981;29;20098;-78
2022/01/20 12:49:42;;;;;;;8.40;0.90;;;4.10;99.90;;;;;;4943343;29;20110;-78
2022/01/20 12:52:09;;;;;;;3.13;1.20;;;4.10;99.90;;;;;;4943066;29;20288;-78
2022/01/20 12:54:35;;;;;;;1.73;1.60;;;4.20;99.90;;;;;;4925692;29;20054;-78
2022/01/20 12:57:07;;;;;;;1.20;1.10;;;4.30;99.90;;;;;;4925580;29;20101;-77
2022/01/20 12:59:39;;;;;;;0.60;0.43;;;4.30;99.90;;;;;;4924823;29;20040;-78
2022/01/20 13:02:23;;;;;;;0.80;0.80;;;4.40;99.90;;;;;;4942946;29;20058;-78
2022/01/20 13:04:55;;;;;;;0.93;0.40;;;4.40;99.90;;;;;;4925727;29;20051;-77
2022/01/20 13:07:21;;;;;;;6.43;1.75;;;4.50;99.90;;;;;;4942434;29;21108;-77
2022/01/20 13:09:53;;;;;;;14.07;0.43;;;4.50;99.90;;;;;;4942777;29;20097;-77
2022/01/20 13:12:30;;;;;;;;;;;4.60;99.90;;;;;;4942510;29;20058;-77
2022/01/20 13:14:56;;;;;;;3.10;1.03;;;4.60;99.90;;;;;;4942154;29;20025;-78
2022/01/20 13:17:24;;;;;;;0.90;0.77;;;4.60;99.90;;;;;;4925486;29;20529;-77
2022/01/20 13:19:54;;;;;;;15.00;0.97;;;4.70;99.90;;;;;;4934456;29;20498;-78
2022/01/20 13:22:29;;;;;;;6.68;2.22;;;4.70;99.90;;;;;;4941765;29;20079;-77
2022/01/20 13:25:09;;;;;;;2.43;1.07;;;4.80;99.90;;;;;;4925687;29;20482;-77
2022/01/20 13:27:35;;;;;;;0.57;0.57;;;4.80;99.90;;;;;;4941787;29;20047;-77
2022/01/20 13:30:02;;;;;;;0.10;0.10;;;4.70;99.90;;;;;;4947516;28;20269;-77
2022/01/20 13:32:28;;;;;;;1.02;0.65;;;4.50;99.90;;;;;;4961254;28;20437;-78
2022/01/20 13:34:55;;;;;;;8.50;0.67;;;4.50;99.90;;;;;;4944344;28;20097;-78
2022/01/20 13:37:22;;;;;;;2.80;0.93;;;4.40;99.90;;;;;;4961235;28;20047;-78
2022/01/20 13:39:49;;;;;;;0.40;0.30;;;4.40;99.90;;;;;;4960946;28;20051;-77
2022/01/20 13:45:17;;;;;;;0.30;0.30;;;4.40;99.90;;;;;;4907304;28;20125;-77
2022/01/20 13:47:55;;;;;;;2.97;0.98;;;4.40;99.90;;;;;;4961601;28;20054;-78
2022/01/20 13:50:33;;;;;;;6.10;0.80;;;4.40;99.90;;;;;;4944664;28;20066;-78
2022/01/20 13:53:02;;;;;;;3.60;1.07;;;4.40;99.90;;;;;;4944492;28;20426;-77
2022/01/20 13:55:38;;;;;;;5.53;1.70;;;4.40;99.90;;;;;;4945260;28;20142;-77
2022/01/20 13:58:04;;;;;;;0.20;0.20;;;4.50;99.90;;;;;;4961917;28;20047;-77
2022/01/20 14:00:35;;;;;;;2.33;1.67;;;4.60;99.90;;;;;;4961032;28;20701;-77
2022/01/20 14:03:06;;;;;;;1.83;0.60;;;4.60;99.90;;;;;;4929130;28;20082;-77
2022/01/20 14:05:33;;;;;;;1.97;0.70;;;4.60;99.90;;;;;;4944751;28;20177;-77
2022/01/20 14:08:01;;;;;;;1.08;1.02;;;4.70;99.90;;;;;;4962355;28;20053;-76
2022/01/20 14:10:27;;;;;;;5.10;1.42;;;4.70;99.90;;;;;;4961796;28;20054;-77